createdAt,value
2024-03-11T00:02:06.355Z,100.00
2024-03-11T00:07:09.892Z,100.00
2024-03-11T00:12:15.275Z,100.00
2024-03-11T00:17:19.890Z,100.00
2024-03-11T00:22:22.764Z,100.00
2024-03-11T00:27:27.095Z,100.00
2024-03-11T00:32:31.842Z,100.00
2024-03-11T00:37:36.324Z,100.00
2024-03-11T00:42:42.101Z,100.00
2024-03-11T00:47:46.924Z,100.00
2024-03-11T00:52:50.759Z,100.00
2024-03-11T00:57:54.424Z,100.00
2024-03-11T01:02:59.135Z,100.00
2024-03-11T01:08:02.569Z,100.00
2024-03-11T01:13:07.450Z,100.00
2024-03-11T01:18:11.205Z,100.00
2024-03-11T01:23:14.380Z,100.00
2024-03-11T01:28:18.660Z,100.00
2024-03-11T01:33:21.728Z,100.00
2024-03-11T01:38:25.400Z,100.00
2024-03-11T01:43:29.517Z,100.00
2024-03-11T01:48:32.716Z,100.00
2024-03-11T01:53:36.500Z,100.00
2024-03-11T01:58:42.586Z,100.00
2024-03-11T02:03:46.137Z,100.00
2024-03-11T02:08:50.800Z,100.00
2024-03-11T02:13:54.532Z,100.00
2024-03-11T02:18:57.529Z,100.00
2024-03-11T02:24:00.545Z,100.00
2024-03-11T02:29:03.987Z,100.00
2024-03-11T02:34:07.072Z,100.00
2024-03-11T02:39:10.560Z,100.00
2024-03-11T02:44:15.626Z,100.00
2024-03-11T02:49:20.019Z,100.00
2024-03-11T02:54:24.960Z,100.00
2024-03-11T02:59:28.217Z,100.00
2024-03-11T03:04:32.217Z,100.00
2024-03-11T03:09:38.014Z,100.00
2024-03-11T03:14:42.166Z,100.00
2024-03-11T03:19:45.702Z,100.00
2024-03-11T03:24:48.758Z,100.00
2024-03-11T03:29:52.231Z,100.00
2024-03-11T03:34:55.766Z,100.00
2024-03-11T03:39:59.275Z,100.00
2024-03-11T03:45:02.379Z,100.00
2024-03-11T03:50:06.607Z,100.00
2024-03-11T03:55:13.797Z,100.00
2024-03-11T04:00:18.591Z,100.00
2024-03-11T04:05:23.322Z,100.00
2024-03-11T04:10:27.885Z,100.00
2024-03-11T04:15:31.578Z,100.00
2024-03-11T04:20:34.746Z,100.00
2024-03-11T04:25:38.792Z,100.00
2024-03-11T04:30:42.471Z,100.00
2024-03-11T04:35:46.709Z,100.00
2024-03-11T04:40:50.010Z,100.00
2024-03-11T04:45:53.477Z,100.00
2024-03-11T04:50:56.621Z,100.00
2024-03-11T04:56:00.233Z,100.00
2024-03-11T05:01:05.891Z,100.00
2024-03-11T05:06:08.904Z,100.00
2024-03-11T05:11:12.485Z,100.00
2024-03-11T05:16:16.440Z,100.00
2024-03-11T05:21:19.354Z,100.00
2024-03-11T05:26:22.942Z,100.00
2024-03-11T05:31:27.524Z,100.00
2024-03-11T05:36:30.293Z,100.00
2024-03-11T05:41:33.210Z,100.00
2024-03-11T05:46:36.738Z,100.00
2024-03-11T05:51:40.125Z,100.00
2024-03-11T05:56:45.359Z,100.00
2024-03-11T06:01:48.965Z,100.00
2024-03-11T06:06:52.935Z,100.00
2024-03-11T06:11:56.198Z,100.00
2024-03-11T06:17:03.563Z,100.00
2024-03-11T06:22:13.439Z,100.00
2024-03-11T06:27:16.842Z,100.00
2024-03-11T06:32:20.110Z,100.00
2024-03-11T06:37:23.806Z,86.24
2024-03-11T06:42:26.812Z,77.75
2024-03-11T06:47:29.860Z,74.70
2024-03-11T06:52:35.464Z,73.45
2024-03-11T06:57:42.622Z,70.52
2024-03-11T07:02:50.568Z,66.82
2024-03-11T07:07:56.890Z,64.78
2024-03-11T07:13:00.598Z,63.66
2024-03-11T07:18:04.061Z,63.03
2024-03-11T07:23:10.422Z,60.15
2024-03-11T07:28:14.246Z,58.56
2024-03-11T07:33:18.316Z,54.00
2024-03-11T07:38:25.006Z,52.54
2024-03-11T07:43:30.821Z,52.33
2024-03-11T07:48:34.188Z,52.20
2024-03-11T07:53:38.346Z,50.75
2024-03-11T07:58:41.619Z,50.91
2024-03-11T08:03:45.684Z,47.97
2024-03-11T08:08:51.871Z,46.95
2024-03-11T08:13:55.366Z,47.31
2024-03-11T08:18:59.004Z,44.20
2024-03-11T08:24:02.391Z,32.71
2024-03-11T08:29:06.075Z,32.17
2024-03-11T08:34:09.593Z,30.69
2024-03-11T08:39:12.745Z,31.84
2024-03-11T08:44:15.985Z,32.36
2024-03-11T08:49:19.535Z,31.30
2024-03-11T08:54:24.084Z,32.41
2024-03-11T08:59:28.226Z,34.86
2024-03-11T09:04:32.192Z,33.69
2024-03-11T09:09:36.704Z,33.97
2024-03-11T09:14:39.793Z,32.93
2024-03-11T09:19:43.462Z,33.51
2024-03-11T09:24:46.565Z,33.32
2024-03-11T09:29:50.172Z,33.31
2024-03-11T09:34:53.378Z,33.31
2024-03-11T09:39:56.810Z,33.11
2024-03-11T09:45:04.075Z,32.05
2024-03-11T09:50:12.512Z,33.35
2024-03-11T09:55:16.340Z,31.76
2024-03-11T10:00:25.315Z,30.87
2024-03-11T10:05:32.447Z,31.77
2024-03-11T10:10:36.002Z,27.83
2024-03-11T10:15:39.372Z,28.40
2024-03-11T10:20:45.537Z,27.38
2024-03-11T10:25:50.622Z,28.96
2024-03-11T10:30:54.414Z,28.68
2024-03-11T10:36:13.144Z,30.26
2024-03-11T10:41:23.514Z,30.64
2024-03-11T10:46:26.577Z,32.10
2024-03-11T10:51:35.015Z,33.59
2024-03-11T10:56:42.472Z,33.55
2024-03-11T11:01:53.572Z,34.64
2024-03-11T11:07:03.822Z,33.91
2024-03-11T11:12:07.592Z,35.18
2024-03-11T11:17:11.214Z,36.38
2024-03-11T11:22:15.491Z,37.28
2024-03-11T11:27:26.785Z,35.00
2024-03-11T11:32:33.390Z,34.92
2024-03-11T11:37:41.598Z,33.58
2024-03-11T11:42:45.141Z,34.17
2024-03-11T11:47:48.699Z,35.50
2024-03-11T11:53:05.496Z,34.98
2024-03-11T11:58:10.146Z,33.36
2024-03-11T12:03:32.520Z,32.33
2024-03-11T12:08:36.780Z,33.55
2024-03-11T12:13:42.556Z,31.32
2024-03-11T12:19:07.196Z,32.68
2024-03-11T12:24:15.182Z,31.87
2024-03-11T12:29:22.692Z,33.45
2024-03-11T12:34:26.650Z,33.69
2024-03-11T12:39:35.750Z,31.67
2024-03-11T12:44:39.392Z,31.61
2024-03-11T12:49:42.866Z,32.59
2024-03-11T12:54:46.370Z,34.29
2024-03-11T13:00:01.777Z,31.03
2024-03-11T13:05:15.929Z,31.94
2024-03-11T13:10:18.959Z,31.85
2024-03-11T13:15:25.176Z,31.68
2024-03-11T13:20:54.980Z,32.63
2024-03-11T13:25:58.578Z,30.88
2024-03-11T13:31:10.132Z,31.46
2024-03-11T13:36:16.228Z,32.97
2024-03-11T13:41:19.276Z,33.04
2024-03-11T13:46:22.619Z,36.08
2024-03-11T13:51:26.381Z,37.70
2024-03-11T13:56:31.902Z,41.58
2024-03-11T14:01:36.012Z,45.98
2024-03-11T14:06:41.656Z,48.52
2024-03-11T14:11:46.641Z,51.35
2024-03-11T14:16:50.581Z,48.63
2024-03-11T14:21:55.399Z,47.49
2024-03-11T14:26:58.831Z,47.78
2024-03-11T14:32:02.860Z,43.44
2024-03-11T14:37:06.132Z,41.79
2024-03-11T14:42:09.167Z,42.04
2024-03-11T14:47:13.821Z,44.08
2024-03-11T14:52:16.824Z,45.90
2024-03-11T14:57:20.631Z,49.86
2024-03-11T15:02:24.327Z,52.33
2024-03-11T15:07:28.066Z,51.69
2024-03-11T15:12:32.298Z,51.47
2024-03-11T15:17:37.310Z,51.01
2024-03-11T15:22:42.077Z,51.56
2024-03-11T15:27:47.019Z,54.32
2024-03-11T15:32:53.458Z,56.15
2024-03-11T15:37:58.369Z,56.33
2024-03-11T15:43:02.532Z,51.94
2024-03-11T15:48:07.243Z,51.68
2024-03-11T15:53:11.621Z,54.13
2024-03-11T15:58:15.422Z,55.29
2024-03-11T16:03:20.714Z,54.56
2024-03-11T16:08:23.996Z,55.39
2024-03-11T16:13:27.020Z,56.50
2024-03-11T16:18:30.560Z,58.52
2024-03-11T16:23:34.714Z,60.80
2024-03-11T16:28:38.214Z,61.53
2024-03-11T16:33:42.150Z,63.26
2024-03-11T16:38:51.622Z,64.33
2024-03-11T16:43:56.785Z,65.45
2024-03-11T16:49:01.333Z,66.22
2024-03-11T16:54:06.355Z,65.10
2024-03-11T16:59:09.878Z,67.78
2024-03-11T17:04:16.331Z,68.10
2024-03-11T17:09:22.087Z,68.22
2024-03-11T17:14:29.060Z,70.46
2024-03-11T17:19:32.336Z,70.56
2024-03-11T17:24:42.747Z,70.37
2024-03-11T17:29:46.813Z,71.58
2024-03-11T17:34:50.530Z,72.71
2024-03-11T17:39:54.966Z,73.54
2024-03-11T17:44:58.308Z,75.02
2024-03-11T17:50:02.048Z,73.93
2024-03-11T17:55:08.184Z,74.76
2024-03-11T18:00:12.837Z,76.32
2024-03-11T18:05:18.791Z,77.02
2024-03-11T18:10:24.113Z,77.45
2024-03-11T18:15:29.045Z,78.85
2024-03-11T18:20:34.750Z,80.14
2024-03-11T18:25:38.147Z,83.41
2024-03-11T18:30:41.837Z,82.92
2024-03-11T18:35:46.535Z,83.15
2024-03-11T18:40:50.136Z,81.85
2024-03-11T18:45:54.020Z,83.92
2024-03-11T18:51:05.362Z,85.19
2024-03-11T18:56:10.524Z,85.87
2024-03-11T19:01:14.633Z,85.21
2024-03-11T19:06:20.626Z,84.00
2024-03-11T19:11:29.728Z,83.15
2024-03-11T19:16:33.307Z,80.71
2024-03-11T19:21:39.849Z,78.66
2024-03-11T19:26:43.713Z,75.61
2024-03-11T19:31:46.837Z,75.60
2024-03-11T19:37:12.192Z,75.64
2024-03-11T19:42:23.365Z,75.28
2024-03-11T19:48:04.072Z,76.10
2024-03-11T19:53:36.053Z,76.38
2024-03-11T19:59:18.726Z,76.33
2024-03-11T20:05:11.746Z,73.74
2024-03-11T20:10:33.468Z,72.19
2024-03-11T20:15:52.685Z,72.92
2024-03-11T20:21:05.483Z,72.68
2024-03-11T20:26:55.964Z,72.87
2024-03-11T20:32:01.524Z,73.62
2024-03-11T20:37:05.599Z,74.14
2024-03-11T20:42:12.195Z,75.61
2024-03-11T20:47:16.549Z,75.64
2024-03-11T20:52:20.263Z,76.06
2024-03-11T20:57:23.755Z,76.80
2024-03-11T21:02:27.251Z,78.16
2024-03-11T21:07:30.242Z,80.42
2024-03-11T21:12:33.378Z,81.32
2024-03-11T21:17:40.443Z,80.65
2024-03-11T21:22:43.581Z,75.38
2024-03-11T21:27:54.419Z,71.20
2024-03-11T21:32:57.728Z,70.20
2024-03-11T21:38:12.949Z,70.09
2024-03-11T21:43:21.816Z,69.62
2024-03-11T21:48:24.900Z,69.68
2024-03-11T21:53:30.362Z,69.17
2024-03-11T21:58:33.615Z,69.81
2024-03-11T22:03:36.982Z,69.83
2024-03-11T22:08:40.567Z,69.95
2024-03-11T22:13:43.812Z,71.21
2024-03-11T22:18:47.193Z,72.42
2024-03-11T22:23:50.667Z,72.94
2024-03-11T22:28:57.256Z,73.15
2024-03-11T22:34:00.741Z,73.04
2024-03-11T22:39:07.055Z,72.55
2024-03-11T22:44:10.711Z,72.58
2024-03-11T22:49:14.905Z,73.37
2024-03-11T22:54:18.173Z,72.90
2024-03-11T22:59:21.658Z,75.21
2024-03-11T23:04:25.238Z,75.28
2024-03-11T23:09:30.360Z,75.72
2024-03-11T23:14:35.295Z,77.23
2024-03-11T23:19:45.271Z,77.88
2024-03-11T23:24:49.060Z,79.38
2024-03-11T23:29:52.992Z,80.48
2024-03-11T23:34:57.465Z,78.15
2024-03-11T23:40:00.941Z,81.42
2024-03-11T23:45:04.434Z,88.11
2024-03-11T23:50:07.958Z,87.14
2024-03-11T23:55:12.565Z,89.99
